Nearby METAR Reports

 

KFRG - , , USA
Distance from station: SSW 12mi, 20km
Updated: 02/24/2024 3:53am
Clear
Clear
 Wind from NNW
Wind: NNW 9 mph , 15 km/h, Gust: 20 mph , 31 km/h
Temperature: 43°F , 6°C
Wind Chill: 38°F , 3°C
Dew Point: 34°F , 1°C
Humidity: 71%
Barometer: 29.50 inHg , 999 hPa
Clouds: Clear
Visibility: 10 miles , 16 km
2024/02/24 08:53 KFRG 240853Z AUTO 33008G17KT 10SM CLR 06/01 A2950 RMK AO1 SLP988 T00560011 51010
KISP - , , USA
Distance from station: ESE 14mi, 23km
Updated: 02/24/2024 3:56am
Clear
Clear
 Wind from NNW
Wind: NNW 9 mph , 15 km/h
Temperature: 39°F , 4°C
Wind Chill: 33°F , 1°C
Dew Point: 34°F , 1°C
Humidity: 81%
Barometer: 29.48 inHg , 998.3 hPa
Clouds: Clear
Visibility: 10 miles , 16 km
2024/02/24 08:56 KISP 240856Z AUTO 33008KT 10SM CLR 04/01 A2948 RMK AO2 SLP984 T00390011 51015
 
KBDR - , , USA
Distance from station: NNE 21mi, 34km
Updated: 02/24/2024 3:52am
Clear
Clear
 Wind from NNW
Wind: NNW 15 mph , 24 km/h, Gust: 26 mph , 43 km/h
Temperature: 43°F , 6°C
Wind Chill: 36°F , 2°C
Dew Point: 32°F , 0°C
Humidity: 66%
Barometer: 29.48 inHg , 998.3 hPa
Clouds: Clear
Visibility: 10 miles , 16 km
2024/02/24 08:52 KBDR 240852Z AUTO 33013G23KT 10SM CLR 06/00 A2948 RMK AO2 SLP983 T00560000 51015 $
KHPN - , , USA
Distance from station: WNW 22mi, 35km
Updated: 02/24/2024 3:56am
Clear
Clear
 Wind from NW
Wind: NW 9 mph , 15 km/h
Temperature: 37°F , 3°C
Wind Chill: 30°F , -1°C
Dew Point: 34°F , 1°C
Humidity: 87%
Barometer: 29.49 inHg , 998.6 hPa
Clouds: Clear
Visibility: 10 miles , 16 km
2024/02/24 08:56 KHPN 240856Z 32008KT 10SM CLR 03/01 A2949 RMK AO2 SLP992 T00280006 51013
 
KHWV - , , USA
Distance from station: ESE 26mi, 41km
Updated: 02/24/2024 3:56am
Clear
Clear
 Wind from NNW
Wind: NNW 7 mph , 11 km/h
Temperature: 39°F , 4°C
Wind Chill: 34°F , 1°C
Dew Point: 34°F , 1°C
Humidity: 81%
Barometer: 29.49 inHg , 998.6 hPa
Clouds: Clear
Visibility: 10 miles , 16 km
2024/02/24 08:56 KHWV 240856Z AUTO 33006KT 10SM CLR 04/01 A2949 RMK AO2 SLP985 T00440011 53012
KJFK - , , USA
Distance from station: SW 29mi, 46km
Updated: 02/24/2024 3:51am
Few Clouds
Few Clouds
 Wind from NNW
Wind: NNW 16 mph , 26 km/h
Temperature: 41°F , 5°C
Wind Chill: 33°F , 1°C
Dew Point: 36°F , 2°C
Humidity: 81%
Barometer: 29.51 inHg , 999.3 hPa
Clouds: Few Clouds
Visibility: 10 miles , 16 km
Cloud details: Few Clouds 12000 ft
2024/02/24 08:51 KJFK 240851Z 33014KT 10SM FEW120 05/02 A2951 RMK AO2 SLP994 T00500017 51011
 
KLGA - , , USA
Distance from station: WSW 29mi, 47km
Updated: 02/24/2024 3:51am
Few Clouds
Few Clouds
 Wind from NW
Wind: NW 13 mph , 20 km/h, Gust: 23 mph , 37 km/h
Temperature: 43°F , 6°C
Wind Chill: 36°F , 2°C
Dew Point: 32°F , 0°C
Humidity: 66%
Barometer: 29.51 inHg , 999.3 hPa
Clouds: Few Clouds
Visibility: 10 miles , 16 km
Cloud details: Few Clouds 24000 ft
2024/02/24 08:51 KLGA 240851Z 32011G20KT 10SM FEW240 06/00 A2951 RMK AO2 SLP993 T00560000 53012